Time;durP1;ratioP1;P1;durP2;ratioP2;P2;SDS_P1;SDS_P2;PMS_P1;PMS_P2;Temp;Humidity;BMP_temperature;BMP_pressure;BME280_temperature;BME280_humidity;BME280_pressure;Samples;Min_cycle;Max_cycle;Signal;HPM_P1;HPM_P2
2023/04/28 00:02:01;;;;;;;4.50;3.80;;;;;14.00;98329.00;;;;5054473;28;20074;-57
2023/04/28 00:04:28;;;;;;;4.68;3.20;;;;;14.00;98334.00;;;;5054448;28;20041;-57
2023/04/28 00:06:55;;;;;;;5.40;3.30;;;;;14.00;98332.00;;;;5053643;28;20128;-55
2023/04/28 00:09:22;;;;;;;5.18;3.55;;;;;14.10;98317.00;;;;5054036;28;20049;-59
2023/04/28 00:11:48;;;;;;;7.78;4.40;;;;;14.10;98310.00;;;;5054208;28;20049;-56
2023/04/28 00:14:15;;;;;;;4.10;3.55;;;;;14.10;98303.00;;;;5054205;28;20041;-55
2023/04/28 00:16:42;;;;;;;6.80;3.70;;;;;14.00;98306.00;;;;5054279;28;20051;-56
2023/04/28 00:19:09;;;;;;;5.82;3.63;;;;;14.10;98306.00;;;;5054027;28;20143;-56
2023/04/28 00:21:35;;;;;;;4.20;3.50;;;;;14.10;98311.00;;;;5054327;28;20045;-55
2023/04/28 00:24:02;;;;;;;6.30;3.75;;;;;14.00;98308.00;;;;5054055;28;20037;-59
2023/04/28 00:26:29;;;;;;;4.82;4.00;;;;;13.80;98307.00;;;;5054131;28;20052;-56
2023/04/28 00:28:55;;;;;;;6.68;4.32;;;;;13.80;98304.00;;;;5053619;28;20167;-55
2023/04/28 00:31:22;;;;;;;5.03;4.53;;;;;13.80;98296.00;;;;5052690;28;20068;-55
2023/04/28 00:33:48;;;;;;;5.05;4.00;;;;;13.80;98302.00;;;;5053840;28;20060;-58
2023/04/28 00:36:15;;;;;;;5.00;4.07;;;;;13.80;98296.00;;;;5052606;28;20045;-57
2023/04/28 00:38:42;;;;;;;5.88;3.72;;;;;13.70;98290.00;;;;5053852;28;20052;-56
2023/04/28 00:41:10;;;;;;;4.90;4.00;;;;;13.80;98288.00;;;;5052724;28;20522;-56
2023/04/28 00:43:47;;;;;;;6.43;3.78;;;;;13.70;98287.00;;;;5053596;28;20032;-54
2023/04/28 00:46:20;;;;;;;9.95;4.13;;;;;13.70;98282.00;;;;5052503;28;20052;-55
2023/04/28 00:48:48;;;;;;;5.05;4.13;;;;;13.60;98267.00;;;;5052414;28;20587;-55
2023/04/28 00:51:16;;;;;;;5.90;4.22;;;;;13.60;98266.00;;;;5054423;28;20045;-57
2023/04/28 00:53:44;;;;;;;4.65;3.75;;;;;13.60;98262.00;;;;5052796;28;20087;-53
2023/04/28 00:56:11;;;;;;;6.63;4.03;;;;;13.70;98265.00;;;;5053719;28;20041;-53
2023/04/28 00:58:38;;;;;;;4.65;3.83;;;;;13.80;98267.00;;;;5053482;28;20055;-53
2023/04/28 01:01:06;;;;;;;7.07;4.40;;;;;13.90;98266.00;;;;5052295;28;20095;-54
2023/04/28 01:03:36;;;;;;;5.07;4.32;;;;;14.10;98268.00;;;;5052876;28;20044;-56
2023/04/28 01:06:05;;;;;;;5.00;4.05;;;;;14.20;98264.00;;;;5051430;28;20048;-56
2023/04/28 01:08:33;;;;;;;5.10;4.32;;;;;14.10;98261.00;;;;5051777;28;20068;-63
2023/04/28 01:11:04;;;;;;;5.00;4.38;;;;;14.10;98262.00;;;;5051701;28;20052;-58
2023/04/28 01:13:53;;;;;;;4.68;4.03;;;;;14.20;98265.00;;;;5051734;28;20107;-54
2023/04/28 01:16:20;;;;;;;7.10;4.50;;;;;14.30;98258.00;;;;5051477;28;20060;-57
2023/04/28 01:18:47;;;;;;;4.50;4.05;;;;;14.30;98273.00;;;;5051427;28;20051;-55
2023/04/28 01:21:14;;;;;;;5.50;4.47;;;;;14.20;98279.00;;;;5051702;28;20045;-57
2023/04/28 01:23:45;;;;;;;8.70;4.40;;;;;14.10;98272.00;;;;5051364;28;20490;-54
2023/04/28 01:26:12;;;;;;;6.13;4.20;;;;;13.90;98259.00;;;;5051472;28;20482;-59
2023/04/28 01:28:38;;;;;;;5.15;3.95;;;;;13.80;98263.00;;;;5051771;28;20044;-57
2023/04/28 01:31:05;;;;;;;6.32;3.90;;;;;13.70;98274.00;;;;5051804;28;20048;-55
2023/04/28 01:33:31;;;;;;;6.88;4.40;;;;;13.70;98270.00;;;;5051775;28;20072;-54
2023/04/28 01:35:58;;;;;;;5.70;4.35;;;;;13.60;98261.00;;;;5051689;28;20067;-54
2023/04/28 01:38:24;;;;;;;8.70;4.15;;;;;13.60;98262.00;;;;5051622;28;20107;-57
2023/04/28 01:40:53;;;;;;;7.15;3.90;;;;;13.50;98253.00;;;;5051318;28;20037;-57
2023/04/28 01:43:20;;;;;;;7.60;4.93;;;;;13.50;98252.00;;;;5051411;28;20044;-59
2023/04/28 01:45:46;;;;;;;7.55;4.45;;;;;13.50;98251.00;;;;5050155;28;20041;-57
2023/04/28 01:48:13;;;;;;;5.82;4.38;;;;;13.40;98246.00;;;;5051364;28;20045;-58
2023/04/28 01:50:39;;;;;;;5.05;4.00;;;;;13.40;98245.00;;;;5051239;28;20044;-58
2023/04/28 01:53:06;;;;;;;6.88;4.40;;;;;13.60;98252.00;;;;5050090;28;20470;-59
2023/04/28 01:55:33;;;;;;;5.97;4.50;;;;;13.70;98247.00;;;;5050223;28;20041;-59
2023/04/28 01:57:59;;;;;;;7.95;3.85;;;;;13.60;98252.00;;;;5050322;28;20448;-59
2023/04/28 02:00:29;;;;;;;5.93;4.15;;;;;13.50;98248.00;;;;5049833;28;20053;-59
2023/04/28 02:02:55;;;;;;;6.28;4.20;;;;;13.50;98241.00;;;;5049782;28;20045;-59
2023/04/28 02:05:22;;;;;;;8.00;4.20;;;;;13.50;98246.00;;;;5051142;28;20036;-59
2023/04/28 02:07:50;;;;;;;6.30;4.35;;;;;13.40;98244.00;;;;5049923;28;20131;-59
2023/04/28 02:10:18;;;;;;;7.18;5.18;;;;;13.50;98248.00;;;;5049695;28;20048;-59
2023/04/28 02:12:44;;;;;;;6.55;5.30;;;;;13.50;98257.00;;;;5049889;28;20056;-59
2023/04/28 02:15:11;;;;;;;6.75;4.72;;;;;13.60;98263.00;;;;5051038;28;20041;-59
2023/04/28 02:17:37;;;;;;;9.55;5.15;;;;;13.60;98263.00;;;;5049713;28;20037;-59
2023/04/28 02:20:05;;;;;;;6.53;4.60;;;;;13.60;98270.00;;;;5050576;28;20095;-59
2023/04/28 02:22:31;;;;;;;7.45;4.40;;;;;13.60;98271.00;;;;5050864;28;20045;-59
2023/04/28 02:24:58;;;;;;;5.72;4.85;;;;;13.50;98260.00;;;;5051135;28;20045;-58
2023/04/28 02:27:24;;;;;;;8.10;4.97;;;;;13.50;98250.00;;;;5014755;28;1091184;-57
2023/04/28 02:29:51;;;;;;;6.88;4.28;;;;;13.50;98247.00;;;;5067465;28;20044;-59
2023/04/28 02:32:18;;;;;;;6.70;4.43;;;;;13.50;98248.00;;;;5065692;28;20061;-58
2023/04/28 02:34:44;;;;;;;7.60;4.85;;;;;13.50;98244.00;;;;5051725;28;20072;-59
2023/04/28 02:37:11;;;;;;;6.60;4.65;;;;;13.50;98245.00;;;;5050973;28;20041;-59
2023/04/28 02:39:38;;;;;;;7.90;5.05;;;;;13.50;98239.00;;;;5050369;28;20048;-58
2023/04/28 02:42:05;;;;;;;7.38;5.40;;;;;13.50;98243.00;;;;5051808;28;20052;-58
2023/04/28 02:44:31;;;;;;;6.70;4.43;;;;;13.40;98225.00;;;;5034036;28;20056;-58
2023/04/28 02:46:59;;;;;;;7.32;5.28;;;;;13.50;98227.00;;;;5050402;28;20047;-57
2023/04/28 02:49:26;;;;;;;6.55;5.22;;;;;13.50;98223.00;;;;5050250;28;20132;-57
2023/04/28 02:51:53;;;;;;;5.85;5.13;;;;;13.40;98222.00;;;;5051689;28;20047;-57
2023/04/28 02:54:26;;;;;;;7.68;4.85;;;;;13.40;98220.00;;;;5051828;28;20040;-58
2023/04/28 02:56:54;;;;;;;8.80;5.03;;;;;13.40;98206.00;;;;5050765;28;20123;-58
2023/04/28 02:59:22;;;;;;;7.53;5.47;;;;;13.50;98203.00;;;;5033748;28;20128;-58
2023/04/28 03:01:49;;;;;;;11.20;6.20;;;;;13.50;98205.00;;;;5033730;28;20509;-58
2023/04/28 03:04:17;;;;;;;10.50;6.00;;;;;13.60;98202.00;;;;5051569;28;20405;-58
2023/04/28 03:06:44;;;;;;;9.13;5.55;;;;;13.60;98209.00;;;;5050292;28;20049;-58
2023/04/28 03:09:11;;;;;;;9.27;5.50;;;;;13.50;98205.00;;;;5050102;28;20128;-58
2023/04/28 03:11:38;;;;;;;7.60;5.60;;;;;13.50;98210.00;;;;5050169;28;20060;-58
2023/04/28 03:14:04;;;;;;;6.68;5.95;;;;;13.50;98214.00;;;;5050250;28;20403;-58
2023/04/28 03:16:32;;;;;;;8.95;5.72;;;;;13.50;98213.00;;;;5050210;28;20041;-57
2023/04/28 03:18:58;;;;;;;8.68;5.65;;;;;13.50;98219.00;;;;5051196;28;20041;-58
2023/04/28 03:21:28;;;;;;;7.50;4.93;;;;;13.40;98211.00;;;;5033765;28;20059;-54
2023/04/28 03:23:55;;;;;;;8.48;5.50;;;;;13.40;98205.00;;;;5050242;28;20167;-54
2023/04/28 03:26:21;;;;;;;8.05;5.13;;;;;13.30;98189.00;;;;5050022;28;20073;-56
2023/04/28 03:28:50;;;;;;;9.68;6.03;;;;;13.10;98185.00;;;;5051483;28;20053;-54
2023/04/28 03:31:17;;;;;;;10.75;6.03;;;;;13.10;98192.00;;;;5054816;28;20045;-55
2023/04/28 03:33:45;;;;;;;9.25;6.65;;;;;13.10;98197.00;;;;5053088;28;20045;-54
2023/04/28 03:36:14;;;;;;;10.10;6.80;;;;;13.00;98184.00;;;;5055109;28;20413;-54
2023/04/28 03:38:42;;;;;;;8.77;6.78;;;;;13.00;98185.00;;;;5054440;28;20490;-56
2023/04/28 03:41:09;;;;;;;12.68;6.85;;;;;12.90;98180.00;;;;5053369;28;20079;-55
2023/04/28 03:43:58;;;;;;;9.07;6.82;;;;;13.10;98191.00;;;;5054335;28;20106;-56
2023/04/28 03:46:30;;;;;;;9.98;6.65;;;;;13.20;98182.00;;;;5053615;28;20053;-55
2023/04/28 03:48:58;;;;;;;10.90;8.10;;;;;13.20;98178.00;;;;5053018;28;20045;-58
2023/04/28 03:51:24;;;;;;;11.05;7.10;;;;;13.20;98175.00;;;;5053314;28;20514;-58
2023/04/28 03:53:51;;;;;;;23.85;15.75;;;;;13.20;98175.00;;;;5053314;28;20067;-59
2023/04/28 03:56:18;;;;;;;10.90;7.15;;;;;13.20;98168.00;;;;5053344;28;20052;-58
2023/04/28 03:58:44;;;;;;;10.75;7.13;;;;;13.30;98171.00;;;;5052951;28;20045;-59
2023/04/28 04:01:11;;;;;;;12.63;6.95;;;;;13.20;98158.00;;;;5054560;28;20041;-56
2023/04/28 04:03:38;;;;;;;12.52;7.32;;;;;13.10;98160.00;;;;5054076;28;20045;-59
2023/04/28 04:06:05;;;;;;;10.52;6.72;;;;;13.00;98154.00;;;;5052943;28;20051;-59
2023/04/28 04:08:32;;;;;;;13.10;7.18;;;;;12.90;98151.00;;;;5054113;28;20444;-59
2023/04/28 04:10:59;;;;;;;9.88;7.07;;;;;12.90;98149.00;;;;5053146;28;20049;-59
2023/04/28 04:13:25;;;;;;;10.50;7.20;;;;;12.80;98144.00;;;;5054196;28;20526;-59
2023/04/28 04:15:52;;;;;;;12.68;7.93;;;;;12.80;98148.00;;;;5053021;28;20037;-59
2023/04/28 04:18:22;;;;;;;13.27;7.93;;;;;12.80;98149.00;;;;5066252;28;20053;-59
2023/04/28 04:21:07;;;;;;;12.40;7.50;;;;;12.90;98146.00;;;;5067887;28;20048;-59
2023/04/28 04:23:34;;;;;;;8.02;6.85;;;;;13.00;98146.00;;;;5070186;28;20040;-58
2023/04/28 04:26:00;;;;;;;12.07;7.18;;;;;13.20;98137.00;;;;5070956;28;20045;-59
2023/04/28 04:28:27;;;;;;;8.68;6.88;;;;;13.20;98136.00;;;;5070230;28;20076;-59
2023/04/28 04:30:53;;;;;;;11.13;7.45;;;;;13.10;98139.00;;;;5066251;28;20103;-58
2023/04/28 04:33:20;;;;;;;15.77;12.30;;;;;13.00;98129.00;;;;5069659;28;20370;-58
2023/04/28 04:35:46;;;;;;;11.98;7.03;;;;;13.00;98122.00;;;;5069678;28;20041;-58
2023/04/28 04:38:13;;;;;;;10.77;7.75;;;;;13.00;98130.00;;;;5067039;28;20140;-58
2023/04/28 04:40:40;;;;;;;10.15;7.28;;;;;13.10;98132.00;;;;5062942;28;20045;-58
2023/04/28 04:43:06;;;;;;;10.43;7.85;;;;;13.10;98136.00;;;;5062712;28;20516;-58
2023/04/28 04:45:41;;;;;;;10.25;7.53;;;;;13.10;98133.00;;;;5052683;28;20053;-59
2023/04/28 04:48:08;;;;;;;8.35;6.43;;;;;13.10;98143.00;;;;5035943;28;20049;-59
2023/04/28 04:50:35;;;;;;;9.35;6.65;;;;;13.10;98137.00;;;;5053455;28;20490;-61
2023/04/28 04:53:01;;;;;;;12.13;6.63;;;;;13.10;98131.00;;;;5052974;28;20072;-55
2023/04/28 04:55:28;;;;;;;9.27;7.07;;;;;13.10;98130.00;;;;5053212;28;20511;-57
2023/04/28 04:57:55;;;;;;;12.10;7.07;;;;;13.20;98126.00;;;;5052798;28;20045;-55
2023/04/28 05:00:42;;;;;;;10.32;6.80;;;;;13.20;98132.00;;;;5054360;28;20053;-57
2023/04/28 05:03:10;;;;;;;8.60;6.78;;;;;13.20;98128.00;;;;5052847;28;20460;-56
2023/04/28 05:05:39;;;;;;;9.15;6.65;;;;;13.20;98131.00;;;;5052315;28;20041;-57
2023/04/28 05:08:11;;;;;;;9.02;6.85;;;;;13.30;98128.00;;;;5036536;28;20079;-56
2023/04/28 05:10:38;;;;;;;10.63;6.90;;;;;13.40;98118.00;;;;5051794;28;20075;-56
2023/04/28 05:13:05;;;;;;;9.75;6.78;;;;;13.40;98131.00;;;;5035573;28;20087;-54
2023/04/28 05:15:31;;;;;;;10.65;6.50;;;;;13.40;98122.00;;;;5052884;28;20115;-55
2023/04/28 05:18:16;;;;;;;10.32;7.03;;;;;13.20;98124.00;;;;5052676;28;20051;-54
2023/04/28 05:20:43;;;;;;;7.82;6.32;;;;;13.20;98121.00;;;;5051472;28;20460;-56
2023/04/28 05:23:15;;;;;;;9.38;5.88;;;;;13.30;98113.00;;;;5051460;28;20135;-56
2023/04/28 05:25:42;;;;;;;9.55;6.72;;;;;13.30;98107.00;;;;5051541;28;20052;-56
2023/04/28 05:28:09;;;;;;;10.25;7.85;;;;;13.30;98100.00;;;;5051567;28;20062;-53
2023/04/28 05:30:36;;;;;;;9.13;7.60;;;;;13.30;98111.00;;;;5051280;28;20485;-59
2023/04/28 05:33:03;;;;;;;7.35;6.10;;;;;13.30;98112.00;;;;5052638;28;20045;-54
2023/04/28 05:35:30;;;;;;;9.80;6.97;;;;;13.30;98108.00;;;;5051223;28;20041;-56
2023/04/28 05:37:58;;;;;;;10.25;7.32;;;;;13.20;98131.00;;;;5051401;28;20045;-55
2023/04/28 05:40:25;;;;;;;9.05;6.50;;;;;13.20;98120.00;;;;5051007;28;20045;-55
2023/04/28 05:42:52;;;;;;;10.30;6.60;;;;;13.30;98125.00;;;;5051501;28;20417;-58
2023/04/28 05:45:19;;;;;;;7.50;5.88;;;;;13.30;98122.00;;;;5052410;28;20041;-54
2023/04/28 05:47:46;;;;;;;10.32;6.13;;;;;13.40;98124.00;;;;5052675;28;20080;-55
2023/04/28 05:50:13;;;;;;;8.50;6.10;;;;;13.40;98116.00;;;;5053234;28;20044;-54
2023/04/28 05:52:39;;;;;;;8.68;6.07;;;;;13.40;98120.00;;;;5050959;28;20540;-54
2023/04/28 05:55:07;;;;;;;8.18;6.20;;;;;13.40;98114.00;;;;5051093;28;20494;-55
2023/04/28 05:57:34;;;;;;;9.20;6.05;;;;;13.40;98115.00;;;;5051105;28;20157;-54
2023/04/28 06:00:17;;;;;;;7.45;5.43;;;;;13.40;98125.00;;;;5050897;28;20387;-54
2023/04/28 06:02:44;;;;;;;7.82;6.07;;;;;13.50;98130.00;;;;5051092;28;20631;-54
2023/04/28 06:05:11;;;;;;;6.90;6.15;;;;;13.60;98127.00;;;;5051987;28;20041;-56
2023/04/28 06:07:38;;;;;;;6.57;5.88;;;;;13.60;98137.00;;;;5050965;28;20045;-59
2023/04/28 06:10:05;;;;;;;11.75;6.65;;;;;13.60;98133.00;;;;5051940;28;20494;-58
2023/04/28 06:12:31;;;;;;;8.95;6.03;;;;;13.60;98127.00;;;;5050729;28;20053;-54
2023/04/28 06:14:59;;;;;;;8.60;5.72;;;;;13.50;98128.00;;;;5050602;28;20048;-57
2023/04/28 06:17:26;;;;;;;10.13;6.30;;;;;13.60;98132.00;;;;5052303;28;20049;-54
2023/04/28 06:19:54;;;;;;;7.78;5.65;;;;;13.50;98129.00;;;;5051931;28;20102;-57
2023/04/28 06:22:21;;;;;;;11.63;6.13;;;;;13.50;98137.00;;;;5052165;28;20098;-54
2023/04/28 06:24:47;;;;;;;6.85;6.15;;;;;13.60;98149.00;;;;5051951;28;20044;-55
2023/04/28 06:27:18;;;;;;;9.65;6.85;;;;;13.60;98150.00;;;;5050606;28;20103;-57
2023/04/28 06:29:44;;;;;;;9.52;6.88;;;;;13.70;98160.00;;;;5052302;28;20052;-54
2023/04/28 06:32:11;;;;;;;12.10;7.65;;;;;13.80;98152.00;;;;5053228;28;20490;-55
2023/04/28 06:34:38;;;;;;;9.40;7.05;;;;;13.80;98155.00;;;;5051968;28;20041;-56
2023/04/28 06:37:05;;;;;;;9.93;7.40;;;;;13.90;98139.00;;;;5053794;28;20047;-54
2023/04/28 06:39:31;;;;;;;10.93;6.72;;;;;14.00;98135.00;;;;5055799;28;20041;-58
2023/04/28 06:41:59;;;;;;;8.60;6.13;;;;;14.20;98130.00;;;;5052910;28;20497;-55
2023/04/28 06:44:27;;;;;;;7.57;5.78;;;;;14.30;98119.00;;;;5050887;28;20091;-53
2023/04/28 06:46:54;;;;;;;5.65;4.72;;;;;14.40;98144.00;;;;5051003;28;20576;-56
2023/04/28 06:49:21;;;;;;;5.70;5.03;;;;;14.40;98156.00;;;;5051530;28;20086;-56
2023/04/28 06:51:48;;;;;;;6.78;5.38;;;;;14.40;98159.00;;;;5052029;28;20045;-56
2023/04/28 06:54:15;;;;;;;6.50;5.20;;;;;14.40;98158.00;;;;5052223;28;20045;-56
2023/04/28 06:56:42;;;;;;;8.18;6.32;;;;;14.40;98147.00;;;;5050917;28;20464;-55
2023/04/28 06:59:09;;;;;;;8.07;5.75;;;;;14.50;98149.00;;;;5052018;28;20405;-54
2023/04/28 07:01:35;;;;;;;7.10;6.10;;;;;14.50;98141.00;;;;5052307;28;20091;-56
2023/04/28 07:04:02;;;;;;;7.95;6.90;;;;;14.60;98142.00;;;;5053784;28;20041;-57
2023/04/28 07:06:31;;;;;;;9.57;8.57;;;;;14.60;98145.00;;;;5055771;28;20049;-55
2023/04/28 07:08:57;;;;;;;7.78;6.88;;;;;14.60;98144.00;;;;5056484;28;20053;-54
2023/04/28 07:11:24;;;;;;;8.07;5.55;;;;;14.60;98143.00;;;;5055600;28;20449;-54
2023/04/28 07:13:50;;;;;;;5.00;3.92;;;;;14.60;98138.00;;;;5056653;28;20517;-53
2023/04/28 07:16:17;;;;;;;6.80;4.93;;;;;14.60;98135.00;;;;5057307;28;20513;-56
2023/04/28 07:18:44;;;;;;;5.47;4.30;;;;;14.60;98146.00;;;;5055980;28;20045;-54
2023/04/28 07:21:11;;;;;;;6.47;5.03;;;;;14.70;98144.00;;;;5056267;28;20049;-56
2023/04/28 07:23:39;;;;;;;5.43;4.88;;;;;14.70;98142.00;;;;5055983;28;20489;-56
2023/04/28 07:26:05;;;;;;;5.05;4.22;;;;;14.80;98144.00;;;;5055413;28;20160;-57
2023/04/28 07:28:32;;;;;;;4.85;4.10;;;;;14.90;98146.00;;;;5055390;28;20045;-60
2023/04/28 07:30:59;;;;;;;4.90;3.75;;;;;14.90;98144.00;;;;5055525;28;20082;-56
2023/04/28 07:33:26;;;;;;;5.15;3.50;;;;;14.90;98142.00;;;;5055213;28;20078;-58
2023/04/28 07:35:52;;;;;;;4.95;3.47;;;;;15.00;98133.00;;;;5053865;28;20453;-56
2023/04/28 07:38:19;;;;;;;4.03;3.65;;;;;15.00;98144.00;;;;5053768;28;20057;-55
2023/04/28 07:40:46;;;;;;;4.28;3.80;;;;;15.10;98151.00;;;;5053341;28;20049;-59
2023/04/28 07:43:13;;;;;;;4.22;3.83;;;;;15.20;98136.00;;;;5054629;28;20052;-55
2023/04/28 07:45:40;;;;;;;4.28;3.67;;;;;15.40;98132.00;;;;5054653;28;20053;-55
2023/04/28 07:48:07;;;;;;;5.38;3.70;;;;;15.60;98144.00;;;;5054564;28;20044;-55
2023/04/28 07:50:33;;;;;;;4.20;3.80;;;;;15.70;98136.00;;;;5052692;28;20083;-54
2023/04/28 07:53:00;;;;;;;4.30;3.40;;;;;15.90;98129.00;;;;5054358;28;20049;-58
2023/04/28 07:55:27;;;;;;;4.55;4.07;;;;;16.10;98123.00;;;;5054875;28;20372;-56
2023/04/28 07:57:54;;;;;;;3.72;3.30;;;;;16.20;98124.00;;;;5054414;28;20049;-54
2023/04/28 08:00:20;;;;;;;4.30;2.80;;;;;16.20;98134.00;;;;5055167;28;20413;-53
2023/04/28 08:02:47;;;;;;;5.15;3.25;;;;;16.20;98135.00;;;;5054350;28;20064;-57
2023/04/28 08:05:15;;;;;;;3.10;2.35;;;;;16.20;98132.00;;;;5054213;28;20086;-55
2023/04/28 08:07:42;;;;;;;3.17;2.15;;;;;16.10;98112.00;;;;5054336;28;20552;-58
2023/04/28 08:10:10;;;;;;;2.78;1.88;;;;;16.30;98120.00;;;;5054120;28;20398;-56
2023/04/28 08:12:37;;;;;;;2.35;1.90;;;;;16.30;98117.00;;;;5052873;28;20045;-57
2023/04/28 08:15:04;;;;;;;1.73;1.27;;;;;16.30;98121.00;;;;5054089;28;20033;-55
2023/04/28 08:17:31;;;;;;;2.53;1.60;;;;;16.20;98124.00;;;;5054239;28;20387;-60
2023/04/28 08:19:57;;;;;;;1.42;1.30;;;;;16.20;98120.00;;;;5053812;28;20496;-55
2023/04/28 08:22:24;;;;;;;1.17;1.08;;;;;16.20;98121.00;;;;5054383;28;20564;-56
2023/04/28 08:24:50;;;;;;;1.50;1.20;;;;;16.20;98126.00;;;;5054316;28;20132;-61
2023/04/28 08:27:17;;;;;;;1.30;1.20;;;;;16.20;98128.00;;;;5054220;28;20051;-59
2023/04/28 08:29:43;;;;;;;2.25;1.00;;;;;16.20;98126.00;;;;5052404;28;20045;-58
2023/04/28 08:32:10;;;;;;;2.28;1.30;;;;;16.20;98129.00;;;;5053727;28;20048;-58
2023/04/28 08:34:36;;;;;;;1.40;1.30;;;;;16.30;98127.00;;;;5053638;28;20041;-57
2023/04/28 08:37:03;;;;;;;1.98;1.30;;;;;16.40;98126.00;;;;5053767;28;20044;-57
2023/04/28 08:39:32;;;;;;;2.08;1.48;;;;;16.60;98129.00;;;;5053576;28;20049;-58
2023/04/28 08:42:03;;;;;;;2.42;2.22;;;;;16.60;98128.00;;;;5053696;28;20067;-55
2023/04/28 08:44:38;;;;;;;2.15;2.00;;;;;16.70;98126.00;;;;5053703;28;20049;-57
2023/04/28 08:47:12;;;;;;;2.67;1.90;;;;;16.70;98129.00;;;;5053657;28;20044;-59
2023/04/28 08:49:40;;;;;;;2.92;2.05;;;;;16.80;98124.00;;;;5053788;28;20489;-59
2023/04/28 08:52:11;;;;;;;1.92;1.80;;;;;16.80;98128.00;;;;5053680;28;20098;-59
2023/04/28 08:54:39;;;;;;;2.97;1.92;;;;;16.80;98131.00;;;;5052472;28;20119;-58
2023/04/28 08:57:08;;;;;;;1.58;1.48;;;;;16.80;98133.00;;;;5053338;28;20453;-58
2023/04/28 08:59:39;;;;;;;1.90;1.80;;;;;16.90;98133.00;;;;5053041;28;20116;-60
2023/04/28 09:02:08;;;;;;;1.75;1.65;;;;;17.00;98135.00;;;;5053315;28;20051;-60
2023/04/28 09:04:35;;;;;;;3.00;2.22;;;;;17.00;98144.00;;;;5053245;28;20053;-58
2023/04/28 09:07:02;;;;;;;2.67;2.35;;;;;17.10;98140.00;;;;5053177;28;20390;-57
2023/04/28 09:09:30;;;;;;;3.80;3.40;;;;;17.20;98144.00;;;;5051711;28;20139;-58
2023/04/28 09:12:02;;;;;;;3.00;2.03;;;;;17.30;98134.00;;;;5053052;28;20041;-59
2023/04/28 09:14:34;;;;;;;2.10;2.00;;;;;17.30;98134.00;;;;5051912;28;20056;-59
2023/04/28 09:17:01;;;;;;;1.98;1.88;;;;;17.30;98138.00;;;;5053317;28;20056;-58
2023/04/28 09:19:36;;;;;;;2.95;1.50;;;;;17.30;98131.00;;;;5052805;28;20094;-58
2023/04/28 09:22:04;;;;;;;1.67;1.58;;;;;17.30;98136.00;;;;5053011;28;20433;-61
2023/04/28 09:24:43;;;;;;;1.75;1.65;;;;;17.20;98143.00;;;;5052882;28;20041;-57
2023/04/28 09:27:10;;;;;;;1.90;1.52;;;;;17.20;98138.00;;;;5052155;28;20045;-55
2023/04/28 09:29:38;;;;;;;2.92;1.70;;;;;17.30;98136.00;;;;5052409;28;20049;-59
2023/04/28 09:32:21;;;;;;;1.70;1.60;;;;;17.30;98147.00;;;;5051433;28;20095;-55
2023/04/28 09:34:49;;;;;;;;;;;;;17.40;98144.00;;;;5053154;28;20103;-55
2023/04/28 09:37:18;;;;;;;1.70;1.60;;;;;17.50;98135.00;;;;5052533;28;20282;-57
2023/04/28 09:39:53;;;;;;;1.70;1.60;;;;;17.70;98133.00;;;;5052428;28;20053;-60
2023/04/28 09:42:35;;;;;;;1.63;1.48;;;;;17.90;98143.00;;;;5052501;28;20037;-58
2023/04/28 09:45:04;;;;;;;1.30;1.20;;;;;18.00;98146.00;;;;5051125;28;20049;-60
2023/04/28 09:47:33;;;;;;;1.55;1.45;;;;;18.10;98155.00;;;;5052290;28;20460;-57
2023/04/28 09:50:07;;;;;;;1.52;1.42;;;;;18.10;98167.00;;;;5052202;28;20047;-59
2023/04/28 09:52:34;;;;;;;1.55;1.45;;;;;18.00;98164.00;;;;5052281;28;20053;-58
2023/04/28 09:55:03;;;;;;;1.27;1.17;;;;;17.90;98165.00;;;;5052439;28;20095;-57
2023/04/28 09:57:31;;;;;;;1.25;1.15;;;;;17.80;98162.00;;;;5052250;28;20175;-56
2023/04/28 09:59:59;;;;;;;1.92;1.50;;;;;17.80;98158.00;;;;5052662;28;20049;-60
2023/04/28 10:02:25;;;;;;;0.90;0.90;;;;;17.70;98161.00;;;;5053055;28;20072;-55
2023/04/28 10:04:55;;;;;;;1.30;1.20;;;;;17.80;98148.00;;;;5053022;28;20041;-57
2023/04/28 10:07:23;;;;;;;1.85;1.00;;;;;17.80;98152.00;;;;5052997;28;20482;-58
2023/04/28 10:09:50;;;;;;;1.13;1.02;;;;;17.90;98160.00;;;;5052901;28;20044;-58
2023/04/28 10:12:17;;;;;;;1.20;1.10;;;;;18.10;98165.00;;;;5052798;28;20133;-57
2023/04/28 10:14:45;;;;;;;1.65;1.00;;;;;18.40;98163.00;;;;5053149;28;20045;-57
2023/04/28 10:17:16;;;;;;;0.80;0.80;;;;;18.40;98161.00;;;;5053089;28;20045;-58
2023/04/28 10:19:44;;;;;;;1.38;0.70;;;;;18.40;98162.00;;;;5052849;28;20065;-59
2023/04/28 10:22:32;;;;;;;1.25;0.60;;;;;18.30;98168.00;;;;5052870;28;20048;-58
2023/04/28 10:25:08;;;;;;;3.67;0.70;;;;;18.30;98162.00;;;;5053154;28;20052;-56
2023/04/28 10:27:35;;;;;;;1.58;1.00;;;;;18.40;98162.00;;;;5052800;28;20041;-55
2023/04/28 10:30:13;;;;;;;0.95;0.75;;;;;18.40;98172.00;;;;5053544;28;20103;-56
2023/04/28 10:33:24;;;;;;;1.67;0.80;;;;;18.40;98162.00;;;;5052236;28;20647;-58
2023/04/28 10:35:51;;;;;;;0.75;0.70;;;;;18.40;98157.00;;;;5049037;28;20053;-57
2023/04/28 10:38:20;;;;;;;2.25;0.80;;;;;18.60;98156.00;;;;5054233;28;20486;-58
2023/04/28 10:40:52;;;;;;;0.60;0.60;;;;;18.80;98155.00;;;;5057029;28;20045;-55
2023/04/28 10:43:28;;;;;;;0.80;0.80;;;;;18.90;98151.00;;;;5057439;28;20045;-55
2023/04/28 10:46:00;;;;;;;2.63;1.30;;;;;18.90;98164.00;;;;5056828;28;20033;-57
2023/04/28 10:48:33;;;;;;;0.73;0.70;;;;;18.70;98165.00;;;;5056916;28;20432;-55
2023/04/28 10:51:04;;;;;;;1.40;1.20;;;;;18.50;98163.00;;;;5057063;28;20055;-57
2023/04/28 10:53:53;;;;;;;2.22;0.80;;;;;18.30;98162.00;;;;5057184;28;20053;-57
2023/04/28 10:56:25;;;;;;;1.35;0.98;;;;;18.20;98153.00;;;;5056605;28;20037;-54
2023/04/28 10:58:53;;;;;;;1.13;0.85;;;;;18.30;98159.00;;;;5057374;28;20071;-55
2023/04/28 11:01:33;;;;;;;1.98;1.38;;;;;18.40;98158.00;;;;5057257;28;20045;-55
2023/04/28 11:04:12;;;;;;;2.83;2.25;;;;;18.30;98152.00;;;;5057244;28;20386;-58
2023/04/28 11:06:40;;;;;;;4.35;3.30;;;;;18.30;98145.00;;;;5056348;28;20068;-57
2023/04/28 11:09:18;;;;;;;3.08;1.85;;;;;18.50;98143.00;;;;5056474;28;20191;-58
2023/04/28 11:12:00;;;;;;;3.00;2.70;;;;;19.00;98138.00;;;;5056329;28;20063;-58
2023/04/28 11:14:26;;;;;;;2.72;2.30;;;;;19.30;98146.00;;;;5055815;28;20068;-58
2023/04/28 11:16:54;;;;;;;4.63;2.40;;;;;19.30;98145.00;;;;5057274;28;20041;-61
2023/04/28 11:19:26;;;;;;;1.58;1.45;;;;;19.10;98136.00;;;;5057345;28;20441;-58
2023/04/28 11:21:55;;;;;;;5.20;2.28;;;;;19.00;98141.00;;;;5058613;28;20094;-59
2023/04/28 11:24:32;;;;;;;17.13;9.43;;;;;18.90;98127.00;;;;5056644;28;20453;-56
2023/04/28 11:26:59;;;;;;;7.68;3.20;;;;;18.90;98138.00;;;;5055588;28;20486;-56
2023/04/28 11:29:41;;;;;;;5.65;3.20;;;;;18.70;98135.00;;;;5056730;28;20456;-56
2023/04/28 11:32:09;;;;;;;2.55;1.90;;;;;18.60;98134.00;;;;5055613;28;20056;-56
2023/04/28 11:34:36;;;;;;;3.95;1.60;;;;;18.50;98115.00;;;;5055877;28;20490;-59
2023/04/28 11:37:04;;;;;;;3.13;1.67;;;;;18.50;98133.00;;;;5056104;28;20102;-60
2023/04/28 11:39:32;;;;;;;1.80;1.27;;;;;18.60;98136.00;;;;5055603;28;20052;-59
2023/04/28 11:42:08;;;;;;;3.17;1.88;;;;;18.70;98137.00;;;;5054917;28;20045;-60
2023/04/28 11:44:35;;;;;;;3.88;1.90;;;;;18.80;98148.00;;;;5056123;28;20055;-55
2023/04/28 11:47:03;;;;;;;2.55;1.73;;;;;18.70;98152.00;;;;5055574;28;20087;-55
2023/04/28 11:49:44;;;;;;;4.40;1.90;;;;;18.70;98138.00;;;;5054513;28;20545;-57
2023/04/28 11:52:11;;;;;;;3.90;1.42;;;;;18.70;98145.00;;;;5054912;28;20102;-55
2023/04/28 11:54:38;;;;;;;3.17;1.50;;;;;18.70;98148.00;;;;5055171;28;20114;-58
2023/04/28 11:57:05;;;;;;;1.88;1.35;;;;;18.70;98156.00;;;;5054610;28;20072;-57
2023/04/28 11:59:35;;;;;;;1.25;1.15;;;;;18.70;98140.00;;;;5054450;28;20091;-56
2023/04/28 12:02:05;;;;;;;3.03;1.63;;;;;18.90;98129.00;;;;5054609;28;20037;-56
2023/04/28 12:04:37;;;;;;;1.83;1.20;;;;;19.00;98129.00;;;;5054753;28;20124;-58
2023/04/28 12:07:12;;;;;;;1.30;1.15;;;;;19.20;98136.00;;;;5055589;28;20049;-57
2023/04/28 12:09:41;;;;;;;2.53;1.27;;;;;19.30;98138.00;;;;5056036;28;20056;-57
2023/04/28 12:12:35;;;;;;;1.42;1.10;;;;;19.40;98147.00;;;;5055990;28;20049;-57
2023/04/28 12:15:17;;;;;;;3.85;1.48;;;;;19.60;98140.00;;;;5055923;28;20048;-56
2023/04/28 12:18:15;;;;;;;1.33;1.20;;;;;20.10;98138.00;;;;5055254;28;20076;-57
2023/04/28 12:20:42;;;;;;;1.13;1.02;;;;;20.50;98131.00;;;;5054781;28;20067;-55
2023/04/28 12:23:08;;;;;;;0.70;0.70;;;;;20.80;98122.00;;;;5055745;28;20153;-59
2023/04/28 12:25:45;;;;;;;1.38;1.08;;;;;21.00;98125.00;;;;5054417;28;20048;-57